Time;durP1;ratioP1;P1;durP2;ratioP2;P2;SDS_P1;SDS_P2;PMS_P1;PMS_P2;Temp;Humidity;BMP_temperature;BMP_pressure;BME280_temperature;BME280_humidity;BME280_pressure;Samples;Min_cycle;Max_cycle;Signal;HPM_P1;HPM_P2
2022/07/01 00:00:38;;;;;;;28.42;22.00;;;20.70;99.90;;;;;;10368473;28;20549;-82
2022/07/01 00:05:40;;;;;;;28.08;20.63;;;20.60;99.90;;;;;;10363681;28;20030;-82
2022/07/01 00:10:41;;;;;;;30.13;21.63;;;20.50;99.90;;;;;;10366788;28;20018;-82
2022/07/01 00:15:41;;;;;;;27.70;20.77;;;20.50;99.90;;;;;;10374901;28;20073;-83
2022/07/01 00:20:42;;;;;;;29.70;22.23;;;20.40;99.90;;;;;;10363757;28;20049;-85
2022/07/01 00:25:44;;;;;;;29.38;22.92;;;20.30;99.90;;;;;;10369491;28;20045;-83
2022/07/01 00:30:45;;;;;;;26.50;20.27;;;20.30;99.90;;;;;;10385544;28;20022;-82
2022/07/01 00:35:45;;;;;;;24.80;19.15;;;20.30;99.90;;;;;;10377006;28;20145;-83
2022/07/01 00:40:52;;;;;;;22.95;18.25;;;20.20;99.90;;;;;;10376741;28;20053;-83
2022/07/01 00:45:53;;;;;;;24.70;18.13;;;20.20;99.90;;;;;;10376391;28;20060;-82
2022/07/01 00:50:53;;;;;;;22.92;17.50;;;20.20;99.90;;;;;;10382842;28;20665;-86
2022/07/01 00:56:09;;;;;;;24.02;16.05;;;20.10;99.90;;;;;;10373941;28;20634;-83
2022/07/01 01:01:09;;;;;;;;;;;20.10;99.90;;;;;;10372052;28;20038;-83
2022/07/01 01:06:10;;;;;;;24.13;19.38;;;20.10;99.90;;;;;;10370798;28;19971;-82
2022/07/01 01:11:11;;;;;;;23.13;18.98;;;20.00;99.90;;;;;;10379909;28;20045;-83
2022/07/01 01:16:17;;;;;;;24.88;19.08;;;19.90;99.90;;;;;;10386703;28;20077;-85
2022/07/01 01:21:18;;;;;;;23.90;18.30;;;19.90;99.90;;;;;;10383172;28;20580;-86
2022/07/01 01:26:21;;;;;;;31.60;20.83;;;19.80;99.90;;;;;;10370120;28;20049;-83
2022/07/01 01:31:29;;;;;;;31.10;20.85;;;19.80;99.90;;;;;;10380846;28;20047;-83
2022/07/01 01:36:30;;;;;;;29.27;19.58;;;19.80;99.90;;;;;;10372650;28;20495;-82
2022/07/01 01:41:31;;;;;;;25.95;19.88;;;19.70;99.90;;;;;;10375204;28;20034;-85
2022/07/01 01:46:31;;;;;;;26.52;20.02;;;19.70;99.90;;;;;;10383285;28;20064;-82
2022/07/01 01:51:33;;;;;;;26.92;20.02;;;19.60;99.90;;;;;;10383765;28;20128;-82
2022/07/01 01:56:33;;;;;;;30.65;21.48;;;19.70;99.90;;;;;;10373890;28;20496;-83
2022/07/01 02:01:34;;;;;;;27.83;20.92;;;19.70;99.90;;;;;;10376055;28;20030;-83
2022/07/01 02:06:35;;;;;;;28.13;20.85;;;19.60;99.90;;;;;;10378079;28;20392;-83
2022/07/01 02:11:35;;;;;;;26.40;20.35;;;19.50;99.90;;;;;;10374350;28;20478;-84
2022/07/01 02:16:36;;;;;;;28.38;21.55;;;19.40;99.90;;;;;;10366987;28;20044;-84
2022/07/01 02:21:36;;;;;;;26.25;21.25;;;19.30;99.90;;;;;;10369349;28;20469;-83
2022/07/01 02:26:37;;;;;;;24.67;20.67;;;19.20;99.90;;;;;;10371847;28;20033;-85
2022/07/01 02:31:38;;;;;;;30.60;22.23;;;19.10;99.90;;;;;;10372112;28;20053;-84
2022/07/01 02:36:38;;;;;;;26.95;21.75;;;19.10;99.90;;;;;;10372243;28;20045;-83
2022/07/01 02:46:58;;;;;;;31.10;23.45;;;19.00;99.90;;;;;;10381217;28;20065;-82
2022/07/01 02:51:59;;;;;;;33.47;24.95;;;18.90;99.90;;;;;;10371967;28;20026;-84
2022/07/01 02:57:01;;;;;;;31.48;22.27;;;18.90;99.90;;;;;;10370024;28;20478;-85
2022/07/01 03:02:01;;;;;;;32.95;24.05;;;18.80;99.90;;;;;;10372947;28;20029;-81
2022/07/01 03:07:02;;;;;;;31.08;23.23;;;18.90;99.90;;;;;;10396054;28;20495;-84
2022/07/01 03:12:24;;;;;;;28.42;21.42;;;18.90;99.90;;;;;;10374183;28;20022;-82
2022/07/01 03:17:25;;;;;;;30.80;22.95;;;18.90;99.90;;;;;;10383924;28;20053;-83
2022/07/01 03:22:29;;;;;;;29.95;22.17;;;18.90;99.90;;;;;;10376052;28;20054;-83
2022/07/01 03:27:30;;;;;;;33.95;25.63;;;19.00;99.90;;;;;;10370797;28;20041;-83
2022/07/01 03:32:31;;;;;;;33.08;24.35;;;19.00;99.90;;;;;;10366469;28;20034;-87
2022/07/01 03:37:32;;;;;;;25.52;21.27;;;19.10;99.90;;;;;;10364336;28;20034;-85
2022/07/01 03:42:33;;;;;;;32.13;21.10;;;19.10;99.90;;;;;;10374690;28;20052;-82
2022/07/01 03:47:33;;;;;;;28.13;22.08;;;19.20;99.90;;;;;;10367127;28;20444;-81
2022/07/01 03:52:34;;;;;;;29.55;21.00;;;19.30;99.90;;;;;;10369317;28;20038;-82
2022/07/01 03:57:34;;;;;;;25.95;21.55;;;19.40;99.90;;;;;;10368411;28;20038;-83
2022/07/01 04:02:35;;;;;;;27.80;20.98;;;19.50;99.90;;;;;;10386584;28;20105;-84
2022/07/01 04:07:36;;;;;;;26.77;21.27;;;19.50;99.90;;;;;;10376743;28;20512;-83
2022/07/01 04:12:37;;;;;;;28.25;21.85;;;19.60;99.90;;;;;;10382896;28;20025;-83
2022/07/01 04:17:37;;;;;;;27.00;21.45;;;19.80;99.90;;;;;;10386365;28;20047;-82
2022/07/01 04:22:38;;;;;;;26.70;21.02;;;19.90;99.90;;;;;;10378050;28;20117;-83
2022/07/01 04:27:38;;;;;;;29.90;22.48;;;20.00;99.90;;;;;;10377320;28;20469;-83
2022/07/01 04:32:39;;;;;;;25.77;19.10;;;20.10;99.90;;;;;;10376436;28;20034;-84
2022/07/01 04:37:41;;;;;;;26.10;20.27;;;20.30;99.90;;;;;;10389104;28;20040;-83
2022/07/01 04:42:41;;;;;;;29.42;21.38;;;20.40;99.90;;;;;;10389080;28;20025;-86
2022/07/01 04:47:42;;;;;;;27.33;21.60;;;20.60;99.90;;;;;;10389973;28;20050;-83
2022/07/01 04:52:42;;;;;;;29.30;20.30;;;20.80;99.90;;;;;;10370206;28;20036;-83
2022/07/01 04:57:43;;;;;;;29.75;21.08;;;20.90;99.90;;;;;;10369548;28;20060;-86
2022/07/01 05:02:43;;;;;;;22.80;18.20;;;21.10;99.90;;;;;;10370757;28;20120;-84
2022/07/01 05:07:44;;;;;;;22.58;18.15;;;21.30;99.90;;;;;;10385260;28;20030;-84
2022/07/01 05:12:44;;;;;;;24.75;19.25;;;21.50;99.90;;;;;;10368757;28;20108;-86
2022/07/01 05:23:04;;;;;;;24.90;17.15;;;21.90;99.90;;;;;;10368328;28;20033;-84
2022/07/01 05:28:04;;;;;;;24.45;17.90;;;22.10;99.90;;;;;;10370924;28;20022;-83
2022/07/01 05:33:05;;;;;;;25.05;16.48;;;22.30;99.90;;;;;;10370491;28;20034;-85
2022/07/01 05:44:06;;;;;;;22.02;14.70;;;22.70;99.90;;;;;;10369595;28;20681;-86
2022/07/01 05:49:07;;;;;;;23.45;15.70;;;22.80;99.90;;;;;;10384049;28;20550;-82
2022/07/01 05:54:07;;;;;;;25.38;16.90;;;23.10;99.90;;;;;;10376709;28;20034;-83
2022/07/01 05:59:19;;;;;;;20.65;16.15;;;23.40;99.90;;;;;;10370550;28;20049;-85
2022/07/01 06:04:20;;;;;;;22.33;16.23;;;23.60;99.90;;;;;;10370183;28;20021;-86
2022/07/01 06:09:21;;;;;;;21.02;16.45;;;23.90;99.90;;;;;;10393537;28;20408;-83
2022/07/01 06:14:21;;;;;;;22.05;16.67;;;24.20;99.90;;;;;;10368070;28;20021;-84
2022/07/01 06:19:22;;;;;;;25.80;18.20;;;24.40;99.90;;;;;;10380640;28;20132;-86
2022/07/01 06:24:24;;;;;;;20.13;15.10;;;24.70;99.90;;;;;;10378639;28;20041;-85
2022/07/01 06:29:24;;;;;;;20.27;13.73;;;24.90;99.90;;;;;;10367060;28;20057;-83
2022/07/01 06:34:25;;;;;;;20.02;13.98;;;25.10;99.90;;;;;;10377659;28;20112;-85
2022/07/01 06:39:26;;;;;;;17.23;13.57;;;25.40;99.90;;;;;;10374178;28;20073;-84
2022/07/01 06:44:26;;;;;;;19.50;12.57;;;25.70;99.90;;;;;;10376463;28;20465;-83
2022/07/01 06:49:27;;;;;;;23.90;12.55;;;25.80;99.90;;;;;;10381602;28;20058;-83
2022/07/01 06:54:28;;;;;;;14.63;11.15;;;26.00;99.90;;;;;;10383555;28;20021;-83
2022/07/01 06:59:28;;;;;;;12.77;10.65;;;26.80;99.90;;;;;;10375741;28;20029;-84
2022/07/01 07:04:29;;;;;;;13.73;10.25;;;28.20;99.90;;;;;;10377750;28;20032;-87
2022/07/01 07:09:29;;;;;;;14.25;9.80;;;29.70;99.90;;;;;;10377969;28;20136;-87
2022/07/01 07:14:31;;;;;;;17.85;9.75;;;30.90;99.90;;;;;;10379117;28;20029;-86
2022/07/01 07:19:31;;;;;;;14.02;8.82;;;31.90;97.90;;;;;;10383679;28;20060;-86
2022/07/01 07:24:32;;;;;;;12.88;7.85;;;32.70;91.00;;;;;;10378773;28;20045;-86
2022/07/01 07:29:32;;;;;;;13.88;8.07;;;33.40;90.10;;;;;;10381856;28;20143;-87
2022/07/01 07:34:34;;;;;;;12.20;7.95;;;33.90;87.70;;;;;;10378026;28;20037;-84
2022/07/01 07:39:35;;;;;;;15.13;8.05;;;34.30;82.60;;;;;;10392479;28;20496;-86
2022/07/01 07:44:36;;;;;;;12.30;7.75;;;34.50;78.30;;;;;;10388723;28;20101;-85
2022/07/01 07:49:36;;;;;;;11.00;8.13;;;34.80;74.70;;;;;;10385488;28;20029;-85
2022/07/01 07:54:37;;;;;;;9.35;7.38;;;34.90;74.70;;;;;;10386881;28;20095;-84
2022/07/01 07:59:38;;;;;;;10.13;7.30;;;34.50;72.50;;;;;;10388430;28;20578;-86
2022/07/01 08:04:38;;;;;;;10.90;8.02;;;34.10;75.30;;;;;;10383683;28;20124;-84
2022/07/01 08:09:41;;;;;;;14.65;8.02;;;33.70;76.10;;;;;;10377057;28;20018;-83
2022/07/01 08:14:42;;;;;;;11.00;7.33;;;33.60;75.30;;;;;;10373393;28;20029;-82
2022/07/01 08:19:43;;;;;;;10.27;8.18;;;33.50;77.00;;;;;;10370444;28;20305;-84
2022/07/01 08:24:44;;;;;;;8.65;7.75;;;33.40;75.30;;;;;;10380791;28;20033;-85
2022/07/01 08:29:44;;;;;;;15.18;8.13;;;33.20;74.40;;;;;;10370656;28;20634;-83
2022/07/01 08:34:45;;;;;;;11.75;7.97;;;33.10;75.60;;;;;;10381216;28;20105;-83
2022/07/01 08:39:45;;;;;;;9.63;8.20;;;33.00;73.10;;;;;;10379899;28;20460;-85
2022/07/01 08:44:46;;;;;;;11.63;8.07;;;32.80;75.00;;;;;;10368877;28;20030;-86
2022/07/01 08:49:47;;;;;;;13.82;8.68;;;32.70;74.60;;;;;;10383278;28;20018;-87
2022/07/01 08:54:48;;;;;;;10.30;8.52;;;32.90;75.00;;;;;;10369878;28;20026;-85
2022/07/01 09:00:02;;;;;;;16.02;9.23;;;32.90;75.20;;;;;;10375755;28;20037;-83
2022/07/01 09:05:06;;;;;;;15.35;9.02;;;33.10;75.60;;;;;;10369882;28;20116;-83
2022/07/01 09:10:18;;;;;;;12.35;9.25;;;33.20;75.50;;;;;;10377996;28;20037;-86
2022/07/01 09:15:30;;;;;;;15.38;8.57;;;33.10;75.10;;;;;;10371971;28;20112;-85
2022/07/01 09:20:39;;;;;;;12.43;8.98;;;33.20;75.50;;;;;;10375126;28;20540;-85
2022/07/01 09:25:45;;;;;;;11.95;9.30;;;33.50;75.60;;;;;;10378017;28;20434;-83
2022/07/01 09:30:49;;;;;;;21.80;9.18;;;33.70;75.30;;;;;;10368631;28;20382;-85
2022/07/01 09:35:50;;;;;;;16.48;9.00;;;33.90;74.80;;;;;;10368808;28;20044;-86
2022/07/01 09:40:58;;;;;;;9.38;7.68;;;33.80;74.50;;;;;;10374618;28;20083;-85
2022/07/01 09:46:10;;;;;;;11.70;7.78;;;34.00;72.90;;;;;;10372486;28;20531;-83
2022/07/01 09:51:13;;;;;;;9.57;7.20;;;34.00;71.70;;;;;;10387814;28;20025;-84
2022/07/01 09:56:13;;;;;;;11.63;7.27;;;34.20;74.30;;;;;;10382669;28;20041;-87
2022/07/01 10:01:15;;;;;;;11.70;7.57;;;34.40;70.80;;;;;;10367092;28;20284;-86
2022/07/01 10:06:33;;;;;;;12.90;8.02;;;34.50;73.00;;;;;;10367627;28;20025;-85
2022/07/01 10:12:12;;;;;;;11.90;7.55;;;34.50;71.70;;;;;;10366850;28;20382;-86
2022/07/01 10:17:29;;;;;;;10.10;7.50;;;34.60;70.20;;;;;;10374375;28;20034;-86
2022/07/01 10:22:30;;;;;;;10.13;8.40;;;34.60;70.30;;;;;;10378728;28;20022;-85
2022/07/01 10:27:30;;;;;;;11.73;7.72;;;34.80;70.10;;;;;;10371437;28;20034;-86
2022/07/01 10:32:31;;;;;;;14.05;8.00;;;35.00;71.20;;;;;;10391704;28;20044;-83
2022/07/01 10:37:32;;;;;;;14.63;7.30;;;35.10;70.80;;;;;;10378837;28;20996;-85
2022/07/01 10:42:36;;;;;;;12.88;7.38;;;35.30;72.40;;;;;;10383521;28;20080;-85
2022/07/01 10:47:38;;;;;;;7.97;6.38;;;35.40;68.00;;;;;;10370075;28;20477;-84
2022/07/01 10:52:57;;;;;;;11.98;6.88;;;35.60;70.40;;;;;;10382867;28;20490;-83
2022/07/01 10:57:58;;;;;;;9.35;6.75;;;35.50;69.40;;;;;;10386995;28;20092;-85
2022/07/01 11:03:06;;;;;;;10.45;6.18;;;35.60;68.20;;;;;;10374364;28;20032;-84
2022/07/01 11:08:08;;;;;;;9.40;6.38;;;35.60;69.60;;;;;;10376598;28;20744;-86
2022/07/01 11:13:13;;;;;;;10.85;6.55;;;35.70;67.60;;;;;;10373376;28;20057;-85
2022/07/01 11:18:16;;;;;;;10.05;6.10;;;35.80;65.20;;;;;;10374062;28;20041;-85
2022/07/01 11:23:16;;;;;;;7.82;5.85;;;35.90;68.40;;;;;;10382362;28;20084;-84
2022/07/01 11:28:17;;;;;;;10.65;6.13;;;36.00;68.20;;;;;;10373146;28;20389;-87
2022/07/01 11:33:19;;;;;;;8.25;6.05;;;36.10;66.50;;;;;;10376738;28;20041;-83
2022/07/01 11:43:42;;;;;;;9.10;6.22;;;36.20;66.00;;;;;;10383993;28;20549;-84
2022/07/01 11:48:43;;;;;;;12.07;5.47;;;36.40;66.60;;;;;;10378400;28;20058;-83
2022/07/01 11:53:55;;;;;;;13.35;5.10;;;36.60;63.50;;;;;;10377385;28;20028;-84
2022/07/01 11:58:56;;;;;;;8.15;4.53;;;36.40;62.60;;;;;;10382502;28;20052;-83
2022/07/01 12:04:02;;;;;;;6.28;4.43;;;36.30;60.00;;;;;;10388456;28;20041;-84
2022/07/01 12:09:03;;;;;;;8.02;4.25;;;36.50;61.10;;;;;;10366082;28;20061;-85
2022/07/01 12:14:03;;;;;;;10.52;4.43;;;36.40;61.20;;;;;;10388706;28;20490;-85
2022/07/01 12:19:04;;;;;;;7.28;4.18;;;36.50;62.30;;;;;;10381604;28;20045;-84
2022/07/01 12:24:11;;;;;;;9.20;4.40;;;36.60;62.70;;;;;;10387996;28;20057;-86
2022/07/01 12:29:19;;;;;;;5.90;4.65;;;36.70;61.30;;;;;;10385305;28;21063;-88
2022/07/01 12:34:20;;;;;;;7.75;4.75;;;36.70;61.30;;;;;;10378384;28;20060;-85
2022/07/01 12:39:21;;;;;;;8.82;4.68;;;36.80;59.30;;;;;;10385257;28;20053;-87
2022/07/01 12:44:24;;;;;;;10.63;4.60;;;36.90;59.30;;;;;;10386279;28;20049;-84
2022/07/01 12:49:25;;;;;;;5.78;4.28;;;36.80;59.70;;;;;;10385976;28;20060;-86
2022/07/01 12:54:31;;;;;;;11.60;4.03;;;36.70;58.00;;;;;;10394315;28;20519;-84
2022/07/01 12:59:31;;;;;;;7.97;3.97;;;36.70;57.30;;;;;;10385692;28;20110;-84
2022/07/01 13:04:32;;;;;;;8.80;4.20;;;36.70;57.90;;;;;;10384823;28;20026;-86
2022/07/01 13:09:32;;;;;;;8.50;3.90;;;36.70;57.90;;;;;;10385369;28;20126;-85
2022/07/01 13:14:33;;;;;;;7.85;4.03;;;36.50;57.90;;;;;;10382739;28;20030;-89
2022/07/01 13:19:34;;;;;;;4.85;3.45;;;36.50;56.60;;;;;;10371410;28;20128;-85
2022/07/01 13:24:35;;;;;;;6.75;3.80;;;36.30;57.60;;;;;;10378754;28;20049;-85
2022/07/01 13:29:36;;;;;;;8.02;3.55;;;36.30;57.40;;;;;;10368239;28;20065;-85
2022/07/01 13:34:36;;;;;;;7.47;4.28;;;36.40;55.80;;;;;;10366915;28;20434;-84
2022/07/01 13:39:37;;;;;;;8.55;3.90;;;36.50;56.50;;;;;;10368481;28;20053;-85
2022/07/01 13:44:37;;;;;;;4.63;3.63;;;36.50;58.10;;;;;;10375905;28;20049;-86
2022/07/01 13:49:39;;;;;;;7.25;3.67;;;36.60;56.90;;;;;;10366050;28;20457;-89
2022/07/01 13:54:40;;;;;;;6.35;4.10;;;36.50;57.70;;;;;;10367881;28;20080;-87
2022/07/01 13:59:40;;;;;;;6.47;4.50;;;36.30;57.50;;;;;;10389111;28;20026;-85
2022/07/01 14:04:41;;;;;;;5.35;3.85;;;36.10;57.80;;;;;;10379002;28;20069;-86
2022/07/01 14:09:43;;;;;;;7.20;4.50;;;35.80;58.40;;;;;;10387513;28;20033;-87
2022/07/01 14:14:44;;;;;;;6.38;4.50;;;35.80;58.30;;;;;;10371634;28;20048;-85
2022/07/01 14:19:44;;;;;;;9.30;4.20;;;35.60;59.40;;;;;;10372242;28;20545;-86
2022/07/01 14:24:45;;;;;;;10.57;4.72;;;35.60;58.80;;;;;;10386536;28;20037;-86
2022/07/01 14:29:46;;;;;;;10.52;4.65;;;35.50;57.90;;;;;;10376449;28;20515;-86
2022/07/01 14:34:47;;;;;;;6.28;4.85;;;35.40;59.20;;;;;;10387235;28;20040;-84
2022/07/01 14:39:53;;;;;;;6.53;4.35;;;35.20;58.90;;;;;;10367182;28;20037;-84
2022/07/01 14:44:54;;;;;;;10.35;4.53;;;35.00;59.70;;;;;;10376216;28;20140;-86
2022/07/01 14:49:55;;;;;;;9.43;4.72;;;34.90;59.30;;;;;;10381670;28;20076;-84
2022/07/01 14:54:55;;;;;;;5.45;4.40;;;34.80;59.30;;;;;;10377388;28;20121;-85
2022/07/01 14:59:57;;;;;;;5.88;4.07;;;34.70;58.70;;;;;;10381016;28;20063;-83
2022/07/01 15:04:58;;;;;;;8.38;4.75;;;34.60;59.40;;;;;;10368563;28;20038;-84
2022/07/01 15:10:01;;;;;;;6.80;5.72;;;34.40;60.50;;;;;;10371622;28;20037;-85
2022/07/01 15:15:02;;;;;;;9.23;5.03;;;34.30;58.60;;;;;;10372644;28;20433;-86
2022/07/01 15:20:02;;;;;;;6.90;4.30;;;34.30;59.80;;;;;;10371047;28;20037;-85
2022/07/01 15:25:03;;;;;;;7.30;4.82;;;34.10;61.60;;;;;;10378503;28;20120;-85
2022/07/01 15:30:06;;;;;;;7.25;4.15;;;34.00;60.80;;;;;;10382886;28;20109;-83
2022/07/01 15:35:09;;;;;;;11.70;4.22;;;33.90;59.30;;;;;;10380315;28;20544;-86
2022/07/01 15:40:10;;;;;;;6.68;4.45;;;33.80;58.80;;;;;;10373217;28;20809;-83
2022/07/01 15:45:11;;;;;;;9.40;4.40;;;33.70;58.50;;;;;;10391604;28;20076;-85
2022/07/01 15:50:12;;;;;;;6.10;4.28;;;33.50;58.00;;;;;;10368956;28;20095;-85
2022/07/01 15:55:13;;;;;;;7.95;4.93;;;33.50;58.90;;;;;;10385565;28;20037;-86
2022/07/01 16:00:14;;;;;;;7.25;4.75;;;33.30;59.10;;;;;;10381147;28;20038;-83
2022/07/01 16:05:15;;;;;;;10.27;5.68;;;33.20;61.50;;;;;;10380486;28;20033;-83
2022/07/01 16:10:44;;;;;;;6.50;5.20;;;33.10;63.00;;;;;;10381283;28;20061;-83
2022/07/01 16:15:47;;;;;;;8.95;5.68;;;32.80;62.60;;;;;;10382993;28;20033;-85
2022/07/01 16:20:48;;;;;;;7.53;5.13;;;32.60;63.40;;;;;;10380140;28;20112;-86
2022/07/01 16:25:49;;;;;;;8.38;5.35;;;32.40;65.60;;;;;;10372229;28;20117;-83
2022/07/01 16:30:51;;;;;;;9.27;6.45;;;32.20;70.00;;;;;;10373707;28;20026;-84
2022/07/01 16:36:00;;;;;;;7.07;6.38;;;31.90;66.50;;;;;;10374897;28;20025;-83
2022/07/01 16:41:39;;;;;;;11.05;7.38;;;31.90;68.00;;;;;;10379609;28;20569;-82
2022/07/01 16:46:43;;;;;;;10.32;7.57;;;31.90;67.10;;;;;;10367529;28;20437;-85
2022/07/01 16:51:44;;;;;;;;;;;31.80;65.50;;;;;;10389432;28;20026;-85
2022/07/01 16:56:49;;;;;;;15.13;8.73;;;31.60;68.60;;;;;;10387841;28;19917;-85
2022/07/01 17:01:51;;;;;;;13.43;8.30;;;31.20;73.30;;;;;;10376283;28;20037;-83
2022/07/01 17:06:55;;;;;;;10.63;8.48;;;30.50;77.70;;;;;;10395336;28;20477;-83
2022/07/01 17:11:57;;;;;;;13.30;9.07;;;30.00;75.40;;;;;;10378898;28;20033;-84
2022/07/01 17:17:00;;;;;;;14.20;9.15;;;29.60;76.80;;;;;;10380370;28;20049;-85
2022/07/01 17:22:08;;;;;;;14.00;8.93;;;29.10;78.40;;;;;;10378739;28;20605;-86
2022/07/01 17:27:12;;;;;;;13.05;8.52;;;28.60;80.30;;;;;;10378346;28;20128;-87
2022/07/01 17:32:14;;;;;;;14.15;9.75;;;28.20;81.40;;;;;;10381848;28;20450;-83
2022/07/01 17:37:15;;;;;;;11.95;8.02;;;27.80;83.20;;;;;;10381291;28;20029;-89
2022/07/01 17:42:16;;;;;;;15.35;9.38;;;27.40;84.30;;;;;;10379071;28;20043;-82
2022/07/01 17:47:18;;;;;;;11.48;10.10;;;27.10;85.00;;;;;;10383101;28;20134;-83
2022/07/01 17:52:19;;;;;;;12.73;9.70;;;26.90;86.50;;;;;;10375826;28;20066;-83
2022/07/01 17:57:20;;;;;;;14.98;10.32;;;26.70;87.50;;;;;;10378109;28;20457;-86
2022/07/01 18:02:22;;;;;;;14.00;10.73;;;26.50;89.10;;;;;;10387014;28;20171;-84
2022/07/01 18:07:26;;;;;;;13.70;10.25;;;26.40;90.30;;;;;;10379536;28;20469;-84
2022/07/01 18:12:34;;;;;;;12.40;10.25;;;26.30;90.90;;;;;;10369106;28;20054;-83
2022/07/01 18:17:48;;;;;;;13.23;11.23;;;26.30;91.30;;;;;;10377586;28;20046;-86
2022/07/01 18:23:08;;;;;;;15.10;11.47;;;26.20;92.00;;;;;;10373062;28;20116;-83
2022/07/01 18:28:14;;;;;;;13.95;10.25;;;26.00;92.60;;;;;;10378076;28;20824;-84
2022/07/01 18:33:22;;;;;;;16.02;10.77;;;25.90;93.00;;;;;;10384409;28;20112;-84
2022/07/01 18:38:23;;;;;;;13.60;10.32;;;25.70;93.60;;;;;;10377495;28;20566;-83
2022/07/01 18:43:30;;;;;;;13.43;11.35;;;25.50;94.50;;;;;;10377983;28;20071;-87
2022/07/01 18:48:30;;;;;;;15.05;11.52;;;25.30;96.10;;;;;;10372120;28;20417;-86
2022/07/01 18:53:31;;;;;;;15.30;11.13;;;25.00;98.20;;;;;;10384039;28;20026;-84
2022/07/01 18:58:31;;;;;;;16.65;12.10;;;24.70;99.90;;;;;;10370553;28;20053;-83
2022/07/01 19:03:34;;;;;;;16.45;12.13;;;24.50;99.90;;;;;;10367244;28;20033;-81
2022/07/01 19:08:36;;;;;;;14.02;11.18;;;24.30;99.90;;;;;;10375789;28;20378;-84
2022/07/01 19:13:37;;;;;;;13.70;11.15;;;24.10;99.90;;;;;;10377668;28;20026;-80
2022/07/01 19:18:37;;;;;;;12.05;10.18;;;23.90;99.90;;;;;;10375255;28;20038;-80
2022/07/01 19:23:38;;;;;;;13.10;10.10;;;23.70;99.90;;;;;;10389425;28;21073;-79
2022/07/01 19:28:38;;;;;;;15.20;11.13;;;23.60;99.90;;;;;;10380431;28;20042;-83
2022/07/01 19:33:40;;;;;;;19.13;11.32;;;23.40;99.90;;;;;;10389256;28;20133;-81
2022/07/01 19:38:40;;;;;;;17.50;12.23;;;23.30;99.90;;;;;;10374463;28;20038;-80
2022/07/01 19:43:41;;;;;;;17.90;12.68;;;23.00;99.90;;;;;;10375325;28;20017;-80
2022/07/01 19:48:42;;;;;;;18.40;13.30;;;22.80;99.90;;;;;;10370929;28;20050;-80
2022/07/01 19:53:47;;;;;;;21.92;14.68;;;22.70;99.90;;;;;;10374516;28;20034;-80
2022/07/01 19:58:48;;;;;;;20.75;16.55;;;22.60;99.90;;;;;;10374232;28;20504;-80
2022/07/01 20:03:49;;;;;;;23.65;17.00;;;22.50;99.90;;;;;;10370071;28;20040;-82
2022/07/01 20:08:49;;;;;;;23.90;18.23;;;22.40;99.90;;;;;;10366583;28;20079;-81
2022/07/01 20:13:50;;;;;;;22.40;17.52;;;22.30;99.90;;;;;;10374835;28;20105;-80
2022/07/01 20:18:51;;;;;;;20.85;16.98;;;22.20;99.90;;;;;;10380154;28;20121;-81
2022/07/01 20:23:52;;;;;;;22.05;16.50;;;22.30;99.90;;;;;;10380973;28;20044;-82
2022/07/01 20:28:52;;;;;;;23.35;18.95;;;22.30;99.90;;;;;;10380345;28;20057;-81
2022/07/01 20:33:53;;;;;;;22.45;17.13;;;22.10;99.90;;;;;;10363224;28;20444;-84
2022/07/01 20:38:54;;;;;;;20.95;16.50;;;22.10;99.90;;;;;;10423489;23;20061;-82
2022/07/01 20:43:54;;;;;;;24.35;17.80;;;22.00;99.90;;;;;;10434137;28;20392;-82
2022/07/01 20:48:55;;;;;;;24.02;17.85;;;21.90;99.90;;;;;;10436632;28;20067;-83
2022/07/01 20:53:55;;;;;;;29.30;19.85;;;21.60;99.90;;;;;;10433783;28;20024;-83
2022/07/01 20:58:56;;;;;;;47.15;23.88;;;21.10;99.90;;;;;;10437798;28;20044;-86
2022/07/01 21:03:57;;;;;;;71.68;34.47;;;20.70;99.90;;;;;;10438232;28;20052;-84
2022/07/01 21:08:58;;;;;;;57.65;32.28;;;20.20;99.90;;;;;;10435524;28;20479;-83
2022/07/01 21:13:59;;;;;;;54.90;32.08;;;19.90;99.90;;;;;;10434978;28;20515;-85
2022/07/01 21:18:59;;;;;;;41.88;26.95;;;19.70;99.90;;;;;;10437128;28;20033;-86
2022/07/01 21:24:01;;;;;;;40.17;25.92;;;19.40;99.90;;;;;;10432762;28;20028;-87
2022/07/01 21:29:02;;;;;;;43.00;27.67;;;19.30;99.90;;;;;;10429972;28;20045;-90
2022/07/01 21:34:03;;;;;;;38.10;23.00;;;19.10;99.90;;;;;;10428657;28;20626;-86
2022/07/01 21:39:05;;;;;;;39.15;22.00;;;19.10;99.90;;;;;;10434522;28;20100;-86
2022/07/01 21:44:06;;;;;;;46.40;27.83;;;19.10;99.90;;;;;;10432692;28;20029;-82
2022/07/01 21:49:07;;;;;;;30.15;21.25;;;19.10;99.90;;;;;;10423928;28;20044;-86
2022/07/01 21:54:09;;;;;;;33.47;21.63;;;19.10;99.90;;;;;;10427780;28;20130;-85
2022/07/01 21:59:13;;;;;;;38.47;24.08;;;19.00;99.90;;;;;;10411077;28;20099;-85
2022/07/01 22:04:14;;;;;;;34.13;22.10;;;19.00;99.90;;;;;;10432723;28;20033;-85
2022/07/01 22:09:14;;;;;;;39.10;24.58;;;19.00;99.90;;;;;;10420952;28;20087;-84
2022/07/01 22:14:19;;;;;;;41.53;24.63;;;19.10;99.90;;;;;;10419823;28;20043;-85
2022/07/01 22:19:21;;;;;;;30.55;20.25;;;19.10;99.90;;;;;;10421890;28;20068;-83
2022/07/01 22:24:23;;;;;;;47.47;26.67;;;18.90;99.90;;;;;;10428025;28;20045;-84
2022/07/01 22:29:25;;;;;;;30.55;20.35;;;18.70;99.90;;;;;;10440387;28;20037;-83
2022/07/01 22:34:27;;;;;;;43.08;25.95;;;18.50;99.90;;;;;;10417658;28;20036;-86
2022/07/01 22:39:29;;;;;;;32.08;21.42;;;18.30;99.90;;;;;;10431114;28;20060;-85
2022/07/01 22:44:30;;;;;;;37.75;23.55;;;18.30;99.90;;;;;;10420147;28;20017;-84
2022/07/01 22:50:04;;;;;;;49.85;28.50;;;18.20;99.90;;;;;;10426212;28;20036;-85
2022/07/01 22:55:08;;;;;;;29.65;21.40;;;18.20;99.90;;;;;;10419926;28;20152;-85
2022/07/01 23:00:09;;;;;;;38.38;25.00;;;18.10;99.90;;;;;;10420041;28;20060;-89
2022/07/01 23:05:11;;;;;;;44.78;28.80;;;17.90;99.90;;;;;;10427855;28;20029;-83
2022/07/01 23:10:34;;;;;;;40.78;27.35;;;17.90;99.90;;;;;;10435366;28;20036;-86
2022/07/01 23:21:01;;;;;;;56.00;29.77;;;17.80;99.90;;;;;;10423675;28;20033;-85
2022/07/01 23:26:03;;;;;;;46.72;27.63;;;17.70;99.90;;;;;;10433251;28;20438;-86
2022/07/01 23:31:05;;;;;;;51.50;30.83;;;17.60;99.90;;;;;;10411669;28;20033;-84
2022/07/01 23:36:07;;;;;;;49.08;30.52;;;17.50;99.90;;;;;;10414728;28;20061;-84
2022/07/01 23:41:17;;;;;;;49.00;29.80;;;17.50;99.90;;;;;;10425156;28;20075;-85
2022/07/01 23:46:18;;;;;;;55.67;31.25;;;17.40;99.90;;;;;;10418834;28;20048;-84
2022/07/01 23:51:18;;;;;;;61.15;33.25;;;17.40;99.90;;;;;;10427626;28;20396;-83
2022/07/01 23:56:19;;;;;;;65.35;34.55;;;17.40;99.90;;;;;;10414876;28;20037;-85
